Farber, MO (63345)

11:07 AM CST on February 08, 2016 (GMT -0600)
Pigeon Roost Place | | Change Station
CLOSE
Current Station
Personal Weather Station
Location: Perry, MO
Elevation: 712 ft
Nearby Weather Stations

Elev 712 ft 39.49 °N, 91.71 °W | Updated 18 seconds ago

Overcast
Overcast
23.2 °F
Feels Like 17 °F
N
5.0
Wind Variable Wind from NW
Gusts 17.0 mph

Today
High -- | Low -- °F
--% Chance of Precip.
Yesterday
High -- | Low -- °F
Precip. -- in
Pressure 29.91 in
Visibility 10.0 miles
Clouds Mostly Cloudy 2500 ft
Overcast 3200 ft
Windchill 17 °F
Dew Point 14 °F
Humidity 67%
Rainfall 0.00 in
Snow Depth Not available.
7:06 AM 5:34 PM
New Moon, 0% visible
METAR KHAE 081655Z AUTO 30020G28KT 10SM -SN BKN025 OVC032 M05/M11 A2991 RMK AO2
Pressure 29.91 in
Visibility 10.0 miles
Clouds Mostly Cloudy 2500 ft
Overcast 3200 ft
Windchill 17 °F
Dew Point 14 °F
Humidity 67%
Rainfall 0.00 in
Snow Depth Not available.
7:06 AM 5:34 PM
New Moon, 0% visible
METAR KHAE 081655Z AUTO 30020G28KT 10SM -SN BKN025 OVC032 M05/M11 A2991 RMK AO2

10-Day Weather Forecast

Almanac

Astronomy

Feb. 08, 2016 Rise Set
Actual Time
Civil Twilight
Nautical Twilight
Astronomical Twilight
Moon
Length of Visible Light
Length of Day
Tomorrow will be .
, % of the Moon is Illuminated

Today's Extremes

State Highs State Lows

Community

WunderPhotos

Upload Photos

1,891,471 photos uploaded!

WunderBlog® & News

Nearby

Air Quality

  Air Quality AQ Index Pollutant
Not available.

Snow Depth

Station Depth Elevation

Earthquake Activity

City Distance Mag. Time & Date
Minimum magnitude displayed is 2.5.

Coastal Water Temperatures

Place Temperature

Stations

Nearby Weather Stations

Station Location Temp. Windchill Dew Point Humidity Wind Precip. Elev Updated Type
                   

Watches & Warnings

There are currently no watches in effect.